Charley — WDJ6426 — position and weather

sailwx.info

Track history (hours):
 
Tides and Currents Weather Stations Pressure Air Temp Water Temp Dewpoint Dewpoint Depression Visibility Wind Speed Wind Dir Waves Ship Positions

Charley

Owner: Anderson, Kent E, Escanaba, MI. More information available from US FCC via Universal Licensing System and Coast Guard Vessel Documentation Center.

Last reported at 2018-May-21 20:16 UTC. Time now 2018-May-23 03:30 UTC.
Position N 52°09' W 128°08'.

Length 18 m.

Type: Pleasure craft. MMSI: 367797550.

Date/timePositionNaut miles runAvg speedWind from/ knotsBaromVisibWave heightAir tempDewpointWater temp
2018-May-21 20:16N 52°09' W 128°08'3 8.7
2018-May-21 19:58N 52°06' W 128°07'11 0.9
2018-May-21 07:33N 52°04' W 127°50'0 0.0
2018-May-21 07:20N 52°04' W 127°50'3 0.2
2018-May-20 17:10N 52°02' W 127°54'2 7.1
2018-May-20 16:56N 52°01' W 127°54'3 6.1
2018-May-20 16:26N 51°58' W 127°54'1 1.2
2018-May-20 15:59N 51°58' W 127°53'0 0.0
2018-May-20 15:11N 51°58' W 127°53'0 0.0
2018-May-20 14:56N 51°58' W 127°53'0 0.0
2018-May-20 14:20N 51°58' W 127°53'0 0.0
2018-May-20 13:59N 51°58' W 127°53'0 0.0
2018-May-20 13:26N 51°58' W 127°53'0 0.0
2018-May-20 12:59N 51°58' W 127°53'0 0.0
2018-May-20 12:29N 51°58' W 127°53'0 0.0
2018-May-20 11:53N 51°58' W 127°53'0 0.0
2018-May-20 11:29N 51°58' W 127°53'0 0.0
2018-May-20 10:50N 51°58' W 127°53'0 0.0
2018-May-20 10:23N 51°58' W 127°53'0 0.0
2018-May-20 09:59N 51°58' W 127°53'0 0.0
2018-May-20 09:20N 51°58' W 127°53'0 0.0
2018-May-20 08:59N 51°58' W 127°53'0 0.0
2018-May-20 08:29N 51°58' W 127°53'0 0.0
2018-May-20 07:59N 51°58' W 127°53'0 0.0
2018-May-20 07:26N 51°58' W 127°53'0 0.0
2018-May-20 06:59N 51°58' W 127°53'0 0.0
2018-May-20 06:29N 51°58' W 127°53'0 0.0
2018-May-20 05:56N 51°58' W 127°53'0 0.0
2018-May-20 05:29N 51°58' W 127°53'0 0.0
2018-May-20 04:56N 51°58' W 127°53'0 0.0
2018-May-20 04:26N 51°58' W 127°53'0 0.0
2018-May-20 03:59N 51°58' W 127°53'0 0.0
2018-May-20 03:29N 51°58' W 127°53'0 0.0
2018-May-20 02:56N 51°58' W 127°53'0 0.0
2018-May-20 02:11N 51°58' W 127°53'0 0.0
2018-May-20 01:59N 51°58' W 127°53'0 0.0
2018-May-20 00:59N 51°58' W 127°53'0 0.0
2018-May-20 00:29N 51°58' W 127°53'0 0.0
2018-May-19 23:20N 51°58' W 127°53'0 0.0
2018-May-19 22:56N 51°58' W 127°53'0 0.0
2018-May-19 22:23N 51°58' W 127°53'0 0.0
2018-May-19 21:43N 51°58' W 127°53'0 2.0
2018-May-19 21:29N 51°58' W 127°53'4 7.8
2018-May-19 20:59N 51°54' W 127°55'4 8.3
2018-May-19 20:29N 51°50' W 127°55'4 8.1
2018-May-19 20:01N 51°46' W 127°54'4 7.9
2018-May-19 19:30N 51°42' W 127°54'4 7.8
2018-May-19 19:00N 51°38' W 127°53'4 8.1
2018-May-19 18:31N 51°34' W 127°51'4 8.3
2018-May-19 18:00N 51°30' W 127°48'2 4.1
2018-May-19 17:31N 51°29' W 127°45'0 0.1
2018-May-19 16:56N 51°29' W 127°46'0 0.0
2018-May-19 16:29N 51°29' W 127°46'0 0.0
2018-May-19 13:29N 51°29' W 127°46'0 0.0
2018-May-19 12:44N 51°29' W 127°46'0 0.0
2018-May-19 12:26N 51°29' W 127°46'0 0.0
2018-May-19 11:56N 51°29' W 127°46'0 0.0
2018-May-19 11:20N 51°29' W 127°46'0 0.0
2018-May-19 10:50N 51°29' W 127°46'0 0.0
2018-May-19 10:23N 51°29' W 127°46'0 0.0
2018-May-19 09:56N 51°29' W 127°46'0 0.0
2018-May-19 09:29N 51°29' W 127°46'0 0.0
2018-May-19 08:50N 51°29' W 127°46'0 0.0
2018-May-19 08:29N 51°29' W 127°46'0 0.0
2018-May-19 07:56N 51°29' W 127°46'0 0.0
2018-May-19 07:29N 51°29' W 127°46'0 0.0
2018-May-19 06:56N 51°29' W 127°46'0 0.0
2018-May-19 06:26N 51°29' W 127°46'0 0.0
2018-May-19 05:56N 51°29' W 127°46'0 0.0
2018-May-19 05:14N 51°29' W 127°46'0 0.1
2018-May-19 04:50N 51°29' W 127°46'0 0.0
2018-May-19 01:47N 51°29' W 127°46'0 0.0
2018-May-19 01:14N 51°29' W 127°46'0 0.0
2018-May-19 00:59N 51°29' W 127°46'0 0.0
2018-May-19 00:26N 51°29' W 127°46'0 0.0
2018-May-18 23:56N 51°29' W 127°46'0 0.0
2018-May-18 23:29N 51°29' W 127°46'0 0.0
2018-May-18 22:56N 51°29' W 127°46'0 0.1
2018-May-18 22:23N 51°29' W 127°46'0 0.0
2018-May-18 17:59N 51°29' W 127°46'24 7.2
2018-May-18 14:40N 51°05' W 127°43'2 9.4
2018-May-18 14:27N 51°04' W 127°40'4 9.2
2018-May-18 13:58N 51°02' W 127°34'2 4.8
2018-May-18 13:27N 51°03' W 127°31'0 0.0
2018-May-18 12:27N 51°03' W 127°31'0 0.0
2018-May-18 11:57N 51°03' W 127°31'0 0.0
2018-May-18 11:27N 51°03' W 127°31'0 0.0
2018-May-18 09:57N 51°03' W 127°31'0 0.0
2018-May-18 08:45N 51°03' W 127°31'0 0.0
2018-May-18 08:21N 51°03' W 127°31'0 0.0
2018-May-18 05:51N 51°03' W 127°31'0 0.0
2018-May-18 05:27N 51°03' W 127°31'0 0.0
2018-May-18 04:51N 51°03' W 127°31'0 0.0
2018-May-18 04:27N 51°03' W 127°31'0 0.0
2018-May-18 03:57N 51°03' W 127°31'0 0.0
2018-May-18 03:27N 51°03' W 127°31'0 0.0
2018-May-18 02:57N 51°03' W 127°31'0 0.0
2018-May-18 02:27N 51°03' W 127°31'0 0.0
2018-May-18 01:45N 51°03' W 127°31'0 0.0
2018-May-18 01:27N 51°03' W 127°31'0 0.0
2018-May-18 00:51N 51°03' W 127°31'0 0.0
2018-May-18 00:27N 51°03' W 127°31'0 0.0
2018-May-17 23:27N 51°03' W 127°31'0 0.0
2018-May-17 22:39N 51°03' W 127°31'0 0.0
2018-May-17 22:21N 51°03' W 127°31'2 5.6
2018-May-17 22:00N 51°01' W 127°32'3 2.6
2018-May-17 20:45N 51°04' W 127°36'2 6.6
2018-May-17 20:26N 51°02' W 127°36'3 7.4
2018-May-17 19:59N 50°59' W 127°33'4 7.8
2018-May-17 19:30N 50°56' W 127°30'4 7.5
2018-May-17 18:59N 50°52' W 127°27'4 7.8
2018-May-17 18:29N 50°49' W 127°23'23 0.5
2018-May-15 16:58N 50°54' W 126°48'  
Track history (hours):
 
Tides and Currents Weather Stations Pressure Air Temp Water Temp Dewpoint Dewpoint Depression Visibility Wind Speed Wind Dir Waves Ship Positions

Charley

Owner: Anderson, Kent E, Escanaba, MI. More information available from US FCC via Universal Licensing System and Coast Guard Vessel Documentation Center.

Last reported at 2018-May-21 20:16 UTC. Time now 2018-May-23 03:30 UTC.
Position N 52°09' W 128°08'.

Length 18 m.

Type: Pleasure craft. MMSI: 367797550.

Date/timePositionNaut miles runAvg speedWind from/ knotsBaromVisibWave heightAir tempDewpointWater temp
2018-May-21 20:16N 52°09' W 128°08'3 8.7
2018-May-21 19:58N 52°06' W 128°07'11 0.9
2018-May-21 07:33N 52°04' W 127°50'0 0.0
2018-May-21 07:20N 52°04' W 127°50'3 0.2
2018-May-20 17:10N 52°02' W 127°54'2 7.1
2018-May-20 16:56N 52°01' W 127°54'3 6.1
2018-May-20 16:26N 51°58' W 127°54'1 1.2
2018-May-20 15:59N 51°58' W 127°53'0 0.0
2018-May-20 15:11N 51°58' W 127°53'0 0.0
2018-May-20 14:56N 51°58' W 127°53'0 0.0
2018-May-20 14:20N 51°58' W 127°53'0 0.0
2018-May-20 13:59N 51°58' W 127°53'0 0.0
2018-May-20 13:26N 51°58' W 127°53'0 0.0
2018-May-20 12:59N 51°58' W 127°53'0 0.0
2018-May-20 12:29N 51°58' W 127°53'0 0.0
2018-May-20 11:53N 51°58' W 127°53'0 0.0
2018-May-20 11:29N 51°58' W 127°53'0 0.0
2018-May-20 10:50N 51°58' W 127°53'0 0.0
2018-May-20 10:23N 51°58' W 127°53'0 0.0
2018-May-20 09:59N 51°58' W 127°53'0 0.0
2018-May-20 09:20N 51°58' W 127°53'0 0.0
2018-May-20 08:59N 51°58' W 127°53'0 0.0
2018-May-20 08:29N 51°58' W 127°53'0 0.0
2018-May-20 07:59N 51°58' W 127°53'0 0.0
2018-May-20 07:26N 51°58' W 127°53'0 0.0
2018-May-20 06:59N 51°58' W 127°53'0 0.0
2018-May-20 06:29N 51°58' W 127°53'0 0.0
2018-May-20 05:56N 51°58' W 127°53'0 0.0
2018-May-20 05:29N 51°58' W 127°53'0 0.0
2018-May-20 04:56N 51°58' W 127°53'0 0.0
2018-May-20 04:26N 51°58' W 127°53'0 0.0
2018-May-20 03:59N 51°58' W 127°53'0 0.0
2018-May-20 03:29N 51°58' W 127°53'0 0.0
2018-May-20 02:56N 51°58' W 127°53'0 0.0
2018-May-20 02:11N 51°58' W 127°53'0 0.0
2018-May-20 01:59N 51°58' W 127°53'0 0.0
2018-May-20 00:59N 51°58' W 127°53'0 0.0
2018-May-20 00:29N 51°58' W 127°53'0 0.0
2018-May-19 23:20N 51°58' W 127°53'0 0.0
2018-May-19 22:56N 51°58' W 127°53'0 0.0
2018-May-19 22:23N 51°58' W 127°53'0 0.0
2018-May-19 21:43N 51°58' W 127°53'0 2.0
2018-May-19 21:29N 51°58' W 127°53'4 7.8
2018-May-19 20:59N 51°54' W 127°55'4 8.3
2018-May-19 20:29N 51°50' W 127°55'4 8.1
2018-May-19 20:01N 51°46' W 127°54'4 7.9
2018-May-19 19:30N 51°42' W 127°54'4 7.8
2018-May-19 19:00N 51°38' W 127°53'4 8.1
2018-May-19 18:31N 51°34' W 127°51'4 8.3
2018-May-19 18:00N 51°30' W 127°48'2 4.1
2018-May-19 17:31N 51°29' W 127°45'0 0.1
2018-May-19 16:56N 51°29' W 127°46'0 0.0
2018-May-19 16:29N 51°29' W 127°46'0 0.0
2018-May-19 13:29N 51°29' W 127°46'0 0.0
2018-May-19 12:44N 51°29' W 127°46'0 0.0
2018-May-19 12:26N 51°29' W 127°46'0 0.0
2018-May-19 11:56N 51°29' W 127°46'0 0.0
2018-May-19 11:20N 51°29' W 127°46'0 0.0
2018-May-19 10:50N 51°29' W 127°46'0 0.0
2018-May-19 10:23N 51°29' W 127°46'0 0.0
2018-May-19 09:56N 51°29' W 127°46'0 0.0
2018-May-19 09:29N 51°29' W 127°46'0 0.0
2018-May-19 08:50N 51°29' W 127°46'0 0.0
2018-May-19 08:29N 51°29' W 127°46'0 0.0
2018-May-19 07:56N 51°29' W 127°46'0 0.0
2018-May-19 07:29N 51°29' W 127°46'0 0.0
2018-May-19 06:56N 51°29' W 127°46'0 0.0
2018-May-19 06:26N 51°29' W 127°46'0 0.0
2018-May-19 05:56N 51°29' W 127°46'0 0.0
2018-May-19 05:14N 51°29' W 127°46'0 0.1
2018-May-19 04:50N 51°29' W 127°46'0 0.0
2018-May-19 01:47N 51°29' W 127°46'0 0.0
2018-May-19 01:14N 51°29' W 127°46'0 0.0
2018-May-19 00:59N 51°29' W 127°46'0 0.0
2018-May-19 00:26N 51°29' W 127°46'0 0.0
2018-May-18 23:56N 51°29' W 127°46'0 0.0
2018-May-18 23:29N 51°29' W 127°46'0 0.0
2018-May-18 22:56N 51°29' W 127°46'0 0.1
2018-May-18 22:23N 51°29' W 127°46'0 0.0
2018-May-18 17:59N 51°29' W 127°46'24 7.2
2018-May-18 14:40N 51°05' W 127°43'2 9.4
2018-May-18 14:27N 51°04' W 127°40'4 9.2
2018-May-18 13:58N 51°02' W 127°34'2 4.8
2018-May-18 13:27N 51°03' W 127°31'0 0.0
2018-May-18 12:27N 51°03' W 127°31'0 0.0
2018-May-18 11:57N 51°03' W 127°31'0 0.0
2018-May-18 11:27N 51°03' W 127°31'0 0.0
2018-May-18 09:57N 51°03' W 127°31'0 0.0
2018-May-18 08:45N 51°03' W 127°31'0 0.0
2018-May-18 08:21N 51°03' W 127°31'0 0.0
2018-May-18 05:51N 51°03' W 127°31'0 0.0
2018-May-18 05:27N 51°03' W 127°31'0 0.0
2018-May-18 04:51N 51°03' W 127°31'0 0.0
2018-May-18 04:27N 51°03' W 127°31'0 0.0
2018-May-18 03:57N 51°03' W 127°31'0 0.0
2018-May-18 03:27N 51°03' W 127°31'0 0.0
2018-May-18 02:57N 51°03' W 127°31'0 0.0
2018-May-18 02:27N 51°03' W 127°31'0 0.0
2018-May-18 01:45N 51°03' W 127°31'0 0.0
2018-May-18 01:27N 51°03' W 127°31'0 0.0
2018-May-18 00:51N 51°03' W 127°31'0 0.0
2018-May-18 00:27N 51°03' W 127°31'0 0.0
2018-May-17 23:27N 51°03' W 127°31'0 0.0
2018-May-17 22:39N 51°03' W 127°31'0 0.0
2018-May-17 22:21N 51°03' W 127°31'2 5.6
2018-May-17 22:00N 51°01' W 127°32'3 2.6
2018-May-17 20:45N 51°04' W 127°36'2 6.6
2018-May-17 20:26N 51°02' W 127°36'3 7.4
2018-May-17 19:59N 50°59' W 127°33'4 7.8
2018-May-17 19:30N 50°56' W 127°30'4 7.5
2018-May-17 18:59N 50°52' W 127°27'4 7.8
2018-May-17 18:29N 50°49' W 127°23'23 0.5
2018-May-15 16:58N 50°54' W 126°48'  

Dump ship's entire track history